Time;durP1;ratioP1;P1;durP2;ratioP2;P2;SDS_P1;SDS_P2;PMS_P1;PMS_P2;Temp;Humidity;BMP_temperature;BMP_pressure;BME280_temperature;BME280_humidity;BME280_pressure;Samples;Min_cycle;Max_cycle;Signal;HPM_P1;HPM_P2
2022/10/15 00:00:29;;;;;;;20.00;9.63;;;;;;;;;;5027906;28;20029;-65
2022/10/15 00:02:54;;;;;;;18.50;8.80;;;;;;;;;;5049640;28;20100;-65
2022/10/15 00:05:20;;;;;;;17.20;8.63;;;;;;;;;;5049911;28;20116;-65
2022/10/15 00:07:45;;;;;;;16.95;7.85;;;;;;;;;;5031271;28;20105;-65
2022/10/15 00:10:11;;;;;;;17.30;8.07;;;;;;;;;;5028529;28;20045;-65
2022/10/15 00:12:37;;;;;;;16.88;8.07;;;;;;;;;;5029253;28;20032;-65
2022/10/15 00:15:04;;;;;;;17.55;9.13;;;;;;;;;;5029439;28;20048;-65
2022/10/15 00:17:29;;;;;;;19.40;8.93;;;;;;;;;;5029014;28;20057;-65
2022/10/15 00:19:54;;;;;;;17.52;8.43;;;;;;;;;;5023858;28;20073;-65
2022/10/15 00:22:20;;;;;;;20.33;8.75;;;;;;;;;;5022289;28;20088;-65
2022/10/15 00:24:45;;;;;;;21.60;8.65;;;;;;;;;;5029203;28;20065;-65
2022/10/15 00:27:10;;;;;;;17.77;8.80;;;;;;;;;;5028860;28;20551;-65
2022/10/15 00:29:36;;;;;;;19.13;9.57;;;;;;;;;;5009584;28;20033;-65
2022/10/15 00:32:01;;;;;;;23.98;8.50;;;;;;;;;;5007312;28;20077;-65
2022/10/15 00:34:26;;;;;;;21.48;8.77;;;;;;;;;;5009338;28;20085;-65
2022/10/15 00:36:52;;;;;;;18.33;8.25;;;;;;;;;;5013970;28;20030;-65
2022/10/15 00:39:17;;;;;;;19.13;8.88;;;;;;;;;;5020966;28;20071;-65
2022/10/15 00:41:44;;;;;;;17.83;7.60;;;;;;;;;;5029269;28;20021;-65
2022/10/15 00:44:21;;;;;;;18.45;9.23;;;;;;;;;;5028054;28;20046;-65
2022/10/15 00:46:56;;;;;;;20.10;9.35;;;;;;;;;;5028267;28;20034;-65
2022/10/15 00:49:28;;;;;;;23.77;10.18;;;;;;;;;;5028654;28;20697;-65
2022/10/15 00:52:01;;;;;;;19.30;8.23;;;;;;;;;;5027608;28;20120;-65
2022/10/15 00:54:31;;;;;;;15.30;8.13;;;;;;;;;;5027741;28;20072;-65
2022/10/15 00:56:57;;;;;;;22.15;8.98;;;;;;;;;;5027530;28;20509;-65
2022/10/15 00:59:25;;;;;;;18.73;8.25;;;;;;;;;;5028046;28;20034;-65
2022/10/15 01:01:51;;;;;;;23.83;8.68;;;;;;;;;;5028333;28;20568;-65
2022/10/15 01:04:17;;;;;;;17.83;8.50;;;;;;;;;;5028140;28;20047;-65
2022/10/15 01:06:43;;;;;;;17.88;8.27;;;;;;;;;;5025108;28;20026;-65
2022/10/15 01:09:09;;;;;;;17.77;8.32;;;;;;;;;;5026215;28;20036;-65
2022/10/15 01:11:47;;;;;;;18.20;7.95;;;;;;;;;;5028402;28;20033;-65
2022/10/15 01:14:21;;;;;;;19.88;8.40;;;;;;;;;;5027925;28;20026;-65
2022/10/15 01:16:57;;;;;;;15.88;7.25;;;;;;;;;;5028196;28;20072;-65
2022/10/15 01:20:19;;;;;;;18.65;8.02;;;;;;;;;;5028131;28;20037;-65
2022/10/15 01:23:12;;;;;;;18.08;7.20;;;;;;;;;;5025060;28;20060;-65
2022/10/15 01:26:00;;;;;;;13.55;6.70;;;;;;;;;;5024875;28;20491;-65
2022/10/15 01:28:52;;;;;;;17.98;7.43;;;;;;;;;;5045774;28;20124;-65
2022/10/15 01:31:24;;;;;;;16.63;7.40;;;;;;;;;;5047687;28;20037;-65
2022/10/15 01:34:15;;;;;;;17.33;8.07;;;;;;;;;;5046987;28;20128;-65
2022/10/15 01:36:59;;;;;;;15.68;7.13;;;;;;;;;;5046416;28;20551;-65
2022/10/15 01:39:31;;;;;;;16.85;7.90;;;;;;;;;;5038152;28;20049;-65
2022/10/15 01:42:04;;;;;;;17.63;7.43;;;;;;;;;;5027826;28;20029;-65
2022/10/15 01:44:35;;;;;;;19.20;6.60;;;;;;;;;;5027375;28;20136;-65
2022/10/15 01:47:07;;;;;;;19.75;7.97;;;;;;;;;;5027128;28;20037;-65
2022/10/15 01:49:37;;;;;;;19.45;7.97;;;;;;;;;;5026874;28;20040;-65
2022/10/15 01:52:08;;;;;;;16.15;7.57;;;;;;;;;;5031906;28;20506;-65
2022/10/15 01:54:35;;;;;;;19.02;8.45;;;;;;;;;;5024609;28;20109;-65
2022/10/15 01:57:01;;;;;;;17.20;8.52;;;;;;;;;;5027953;28;20108;-65
2022/10/15 01:59:31;;;;;;;20.67;9.40;;;;;;;;;;5026309;28;20124;-65
2022/10/15 02:01:57;;;;;;;18.85;8.25;;;;;;;;;;5025944;28;20025;-65
2022/10/15 02:04:27;;;;;;;17.13;8.27;;;;;;;;;;5027187;28;20555;-65
2022/10/15 02:07:00;;;;;;;17.27;7.85;;;;;;;;;;5027126;28;20029;-65
2022/10/15 02:09:42;;;;;;;15.93;7.93;;;;;;;;;;5027075;28;20133;-65
2022/10/15 02:12:28;;;;;;;18.30;7.70;;;;;;;;;;5025317;28;20032;-65
2022/10/15 02:15:10;;;;;;;19.83;8.20;;;;;;;;;;5022870;28;20187;-65
2022/10/15 02:17:45;;;;;;;19.10;8.80;;;;;;;;;;5026049;28;20056;-65
2022/10/15 02:20:18;;;;;;;19.63;8.05;;;;;;;;;;5027117;28;20545;-65
2022/10/15 02:23:10;;;;;;;19.48;8.00;;;;;;;;;;5044722;28;20036;-65
2022/10/15 02:25:38;;;;;;;17.08;8.18;;;;;;;;;;5043255;28;20057;-65
2022/10/15 02:28:05;;;;;;;20.85;8.55;;;;;;;;;;5046785;28;20033;-65
2022/10/15 02:30:32;;;;;;;17.48;8.60;;;;;;;;;;5046743;28;20558;-65
2022/10/15 02:32:59;;;;;;;20.38;9.32;;;;;;;;;;5046783;28;20130;-65
2022/10/15 02:35:26;;;;;;;18.73;8.88;;;;;;;;;;5047102;28;20033;-65
2022/10/15 02:37:53;;;;;;;19.48;7.85;;;;;;;;;;5046482;28;20120;-65
2022/10/15 02:40:26;;;;;;;17.67;7.93;;;;;;;;;;5031158;28;20116;-65
2022/10/15 02:42:51;;;;;;;20.45;8.30;;;;;;;;;;5026364;28;20104;-65
2022/10/15 02:45:17;;;;;;;17.63;7.68;;;;;;;;;;5026753;28;20033;-65
2022/10/15 02:47:42;;;;;;;16.73;6.90;;;;;;;;;;5027029;28;20756;-65
2022/10/15 02:50:08;;;;;;;15.05;6.65;;;;;;;;;;5026701;28;20502;-65
2022/10/15 02:52:33;;;;;;;15.82;6.90;;;;;;;;;;5026221;28;20665;-65
2022/10/15 02:54:58;;;;;;;17.58;7.25;;;;;;;;;;5025657;28;20034;-65
2022/10/15 02:57:24;;;;;;;15.10;6.65;;;;;;;;;;5026502;28;20029;-65
2022/10/15 02:59:49;;;;;;;14.82;5.70;;;;;;;;;;5028015;28;20627;-65
2022/10/15 03:02:14;;;;;;;14.15;6.18;;;;;;;;;;5030891;28;20041;-65
2022/10/15 03:04:40;;;;;;;13.15;5.85;;;;;;;;;;5029713;28;20030;-64
2022/10/15 03:07:05;;;;;;;12.65;6.07;;;;;;;;;;5016550;28;20037;-64
2022/10/15 03:09:30;;;;;;;15.73;6.20;;;;;;;;;;5030219;28;20030;-65
2022/10/15 03:11:55;;;;;;;14.07;6.63;;;;;;;;;;5030902;28;20028;-65
2022/10/15 03:14:21;;;;;;;14.52;6.72;;;;;;;;;;5030290;28;20426;-65
2022/10/15 03:16:46;;;;;;;13.68;7.03;;;;;;;;;;5029960;28;20040;-65
2022/10/15 03:19:11;;;;;;;14.80;6.93;;;;;;;;;;5030280;28;20055;-65
2022/10/15 03:21:37;;;;;;;13.07;6.20;;;;;;;;;;5030127;28;20044;-65
2022/10/15 03:24:02;;;;;;;12.13;6.03;;;;;;;;;;5030449;28;20632;-65
2022/10/15 03:26:27;;;;;;;13.00;5.68;;;;;;;;;;5030194;28;20041;-65
2022/10/15 03:28:53;;;;;;;14.02;5.72;;;;;;;;;;5030461;28;20036;-65
2022/10/15 03:31:19;;;;;;;13.05;5.47;;;;;;;;;;5029537;28;20448;-65
2022/10/15 03:33:44;;;;;;;12.05;5.97;;;;;;;;;;5028191;28;20450;-65
2022/10/15 03:36:10;;;;;;;11.48;6.07;;;;;;;;;;5030365;28;20487;-65
2022/10/15 03:38:35;;;;;;;11.13;5.40;;;;;;;;;;5030162;28;20029;-65
2022/10/15 03:41:00;;;;;;;15.98;5.53;;;;;;;;;;5030204;28;20040;-65
2022/10/15 03:43:26;;;;;;;11.27;4.82;;;;;;;;;;5029567;28;20045;-65
2022/10/15 03:45:51;;;;;;;11.20;5.30;;;;;;;;;;5028390;28;20026;-65
2022/10/15 03:48:17;;;;;;;10.95;4.70;;;;;;;;;;5027796;28;20037;-65
2022/10/15 03:50:44;;;;;;;13.13;5.15;;;;;;;;;;5010592;28;20018;-65
2022/10/15 03:53:09;;;;;;;10.45;4.45;;;;;;;;;;5009792;28;20045;-65
2022/10/15 03:55:35;;;;;;;14.05;4.95;;;;;;;;;;5009728;28;20422;-65
2022/10/15 03:58:00;;;;;;;13.13;4.72;;;;;;;;;;5008716;28;20099;-65
2022/10/15 04:00:26;;;;;;;9.45;4.32;;;;;;;;;;5011050;28;20057;-65
2022/10/15 04:02:51;;;;;;;10.95;4.50;;;;;;;;;;5018721;28;20075;-65
2022/10/15 04:05:17;;;;;;;10.82;4.40;;;;;;;;;;5038322;28;20474;-65
2022/10/15 04:07:42;;;;;;;9.98;4.50;;;;;;;;;;5049697;28;20047;-65
2022/10/15 04:10:08;;;;;;;9.73;3.72;;;;;;;;;;5035617;28;20037;-65
2022/10/15 04:12:33;;;;;;;12.23;4.60;;;;;;;;;;5028697;28;20030;-65
2022/10/15 04:14:58;;;;;;;11.60;4.50;;;;;;;;;;5029612;28;20052;-65
2022/10/15 04:17:24;;;;;;;10.07;4.25;;;;;;;;;;5029366;28;20116;-65
2022/10/15 04:19:49;;;;;;;11.70;4.47;;;;;;;;;;5028867;28;20036;-65
2022/10/15 04:22:15;;;;;;;9.88;3.88;;;;;;;;;;5028675;28;20698;-65
2022/10/15 04:24:40;;;;;;;12.25;4.90;;;;;;;;;;5028814;28;20038;-65
2022/10/15 04:27:06;;;;;;;11.35;4.70;;;;;;;;;;5027870;28;20029;-65
2022/10/15 04:29:31;;;;;;;9.27;4.22;;;;;;;;;;5029436;28;20018;-65
2022/10/15 04:31:57;;;;;;;8.60;4.03;;;;;;;;;;5026900;28;20030;-64
2022/10/15 04:34:22;;;;;;;13.60;4.43;;;;;;;;;;5027769;28;20045;-65
2022/10/15 04:36:47;;;;;;;12.40;4.20;;;;;;;;;;5028818;28;20043;-65
2022/10/15 04:39:12;;;;;;;12.00;3.85;;;;;;;;;;5028629;28;20029;-65
2022/10/15 04:41:38;;;;;;;8.80;3.83;;;;;;;;;;5028464;28;20021;-65
2022/10/15 04:44:03;;;;;;;10.15;4.18;;;;;;;;;;5028549;28;20049;-65
2022/10/15 04:46:29;;;;;;;11.15;4.30;;;;;;;;;;5028455;28;20087;-65
2022/10/15 04:48:56;;;;;;;12.57;3.65;;;;;;;;;;5028739;28;20107;-65
2022/10/15 04:51:22;;;;;;;11.52;4.65;;;;;;;;;;5028479;28;20032;-65
2022/10/15 04:53:47;;;;;;;7.78;4.00;;;;;;;;;;5027669;28;20055;-64
2022/10/15 04:56:16;;;;;;;8.52;3.47;;;;;;;;;;5028050;28;20037;-65
2022/10/15 04:58:43;;;;;;;12.57;4.57;;;;;;;;;;5026973;28;20287;-65
2022/10/15 05:01:11;;;;;;;10.70;4.65;;;;;;;;;;5028059;28;20112;-65
2022/10/15 05:03:37;;;;;;;11.32;4.75;;;;;;;;;;5027009;28;20064;-65
2022/10/15 05:06:05;;;;;;;12.75;5.38;;;;;;;;;;5027764;28;20770;-65
2022/10/15 05:08:31;;;;;;;11.07;4.97;;;;;;;;;;5027671;28;20487;-65
2022/10/15 05:11:05;;;;;;;10.35;4.80;;;;;;;;;;5028405;28;20064;-65
2022/10/15 05:13:31;;;;;;;9.15;4.35;;;;;;;;;;5027581;28;20790;-65
2022/10/15 05:15:57;;;;;;;13.82;5.78;;;;;;;;;;5027162;28;20120;-65
2022/10/15 05:18:22;;;;;;;10.65;5.10;;;;;;;;;;5028359;28;20140;-65
2022/10/15 05:20:47;;;;;;;10.25;4.43;;;;;;;;;;5028657;28;20529;-65
2022/10/15 05:23:13;;;;;;;13.18;5.05;;;;;;;;;;5017628;28;20033;-65
2022/10/15 05:25:38;;;;;;;10.63;4.60;;;;;;;;;;5018416;28;20041;-65
2022/10/15 05:28:04;;;;;;;7.05;3.47;;;;;;;;;;5027958;28;20029;-65
2022/10/15 05:30:30;;;;;;;11.50;4.45;;;;;;;;;;5027947;28;20116;-65
2022/10/15 05:32:55;;;;;;;12.43;4.80;;;;;;;;;;5039035;28;20116;-65
2022/10/15 05:35:22;;;;;;;11.43;5.28;;;;;;;;;;5047812;28;20119;-65
2022/10/15 05:37:48;;;;;;;14.57;4.93;;;;;;;;;;5047797;28;20120;-65
2022/10/15 05:40:14;;;;;;;10.35;4.32;;;;;;;;;;5032509;28;20590;-65
2022/10/15 05:42:39;;;;;;;10.77;4.65;;;;;;;;;;5027938;28;20049;-65
2022/10/15 05:45:05;;;;;;;12.80;4.57;;;;;;;;;;5026125;28;20619;-65
2022/10/15 05:47:30;;;;;;;14.00;5.07;;;;;;;;;;5028135;28;20033;-65
2022/10/15 05:49:56;;;;;;;14.43;4.30;;;;;;;;;;5027047;28;20113;-65
2022/10/15 05:52:21;;;;;;;11.80;4.82;;;;;;;;;;5027457;28;20033;-65
2022/10/15 05:54:46;;;;;;;16.65;4.97;;;;;;;;;;5027590;28;20037;-65
2022/10/15 05:57:12;;;;;;;11.85;4.93;;;;;;;;;;5026995;28;20574;-65
2022/10/15 05:59:37;;;;;;;12.07;4.30;;;;;;;;;;5027781;28;20502;-65
2022/10/15 06:02:02;;;;;;;11.65;5.18;;;;;;;;;;5026702;28;20548;-65
2022/10/15 06:04:27;;;;;;;12.80;4.90;;;;;;;;;;5026175;28;20045;-65
2022/10/15 06:06:53;;;;;;;12.35;5.05;;;;;;;;;;5026636;28;20026;-65
2022/10/15 06:09:18;;;;;;;10.63;5.40;;;;;;;;;;5027143;28;20032;-65
2022/10/15 06:11:44;;;;;;;12.70;5.47;;;;;;;;;;5025563;28;20029;-65
2022/10/15 06:14:09;;;;;;;14.20;4.43;;;;;;;;;;5026777;28;20503;-65
2022/10/15 06:16:34;;;;;;;12.30;5.18;;;;;;;;;;5026897;28;20494;-65
2022/10/15 06:19:00;;;;;;;13.70;5.70;;;;;;;;;;5028375;28;20112;-65
2022/10/15 06:21:25;;;;;;;10.98;4.32;;;;;;;;;;5024932;28;20403;-65
2022/10/15 06:23:51;;;;;;;11.73;4.40;;;;;;;;;;5011513;28;20028;-65
2022/10/15 06:26:16;;;;;;;10.18;4.60;;;;;;;;;;5020570;28;20041;-65
2022/10/15 06:28:41;;;;;;;10.88;4.72;;;;;;;;;;5023386;28;20049;-65
2022/10/15 06:31:07;;;;;;;11.02;5.07;;;;;;;;;;5022636;28;20041;-64
2022/10/15 06:33:34;;;;;;;10.43;4.72;;;;;;;;;;5040595;28;20033;-65
2022/10/15 06:36:04;;;;;;;11.55;4.80;;;;;;;;;;5045559;28;20032;-65
2022/10/15 06:38:30;;;;;;;13.18;5.40;;;;;;;;;;5045903;28;20057;-65
2022/10/15 06:40:56;;;;;;;10.70;4.57;;;;;;;;;;5025964;28;20304;-65
2022/10/15 06:43:21;;;;;;;13.57;4.25;;;;;;;;;;5024828;28;20076;-65
2022/10/15 06:45:46;;;;;;;10.82;4.82;;;;;;;;;;5023995;28;20049;-65
2022/10/15 06:48:12;;;;;;;12.85;4.53;;;;;;;;;;5025043;28;20039;-65
2022/10/15 06:50:38;;;;;;;11.88;4.38;;;;;;;;;;5022768;28;20036;-65
2022/10/15 06:53:03;;;;;;;11.80;4.93;;;;;;;;;;5024576;28;20042;-65
2022/10/15 06:55:29;;;;;;;6.45;3.35;;;;;;;;;;5023443;28;20038;-65
2022/10/15 06:57:55;;;;;;;9.43;3.78;;;;;;;;;;5024144;28;20121;-65
2022/10/15 07:00:21;;;;;;;9.85;4.30;;;;;;;;;;5024178;28;20041;-65
2022/10/15 07:02:46;;;;;;;8.68;3.78;;;;;;;;;;5021439;28;20021;-65
2022/10/15 07:05:11;;;;;;;9.60;3.97;;;;;;;;;;5021190;28;20051;-65
2022/10/15 07:07:36;;;;;;;5.93;2.75;;;;;;;;;;5026231;28;20112;-65
2022/10/15 07:10:02;;;;;;;11.32;3.95;;;;;;;;;;5025843;28;20485;-65
2022/10/15 07:12:28;;;;;;;5.95;2.80;;;;;;;;;;5025759;28;20029;-65
2022/10/15 07:14:53;;;;;;;6.75;3.45;;;;;;;;;;5025161;28;20029;-65
2022/10/15 07:17:18;;;;;;;8.10;3.67;;;;;;;;;;5024517;28;20042;-65
2022/10/15 07:19:44;;;;;;;5.90;2.65;;;;;;;;;;5025216;28;20569;-65
2022/10/15 07:22:09;;;;;;;6.43;2.95;;;;;;;;;;5023841;28;20029;-65
2022/10/15 07:24:35;;;;;;;6.05;2.25;;;;;;;;;;5042645;28;20075;-65
2022/10/15 07:27:00;;;;;;;6.90;3.30;;;;;;;;;;5045564;28;20033;-65
2022/10/15 07:29:25;;;;;;;7.05;3.05;;;;;;;;;;5045210;28;20033;-65
2022/10/15 07:31:51;;;;;;;7.45;2.40;;;;;;;;;;5044956;28;20067;-65
2022/10/15 07:34:16;;;;;;;4.43;2.10;;;;;;;;;;5046130;28;20429;-65
2022/10/15 07:36:42;;;;;;;4.55;2.47;;;;;;;;;;5044857;28;20139;-65
2022/10/15 07:39:08;;;;;;;6.90;2.67;;;;;;;;;;5039354;28;20021;-64
2022/10/15 07:41:33;;;;;;;1.90;1.38;;;;;;;;;;5025967;28;20076;-65
2022/10/15 07:43:59;;;;;;;3.60;1.92;;;;;;;;;;5025782;28;20054;-65
2022/10/15 07:46:25;;;;;;;3.33;2.05;;;;;;;;;;5021731;28;20033;-65
2022/10/15 07:48:50;;;;;;;3.25;1.92;;;;;;;;;;5026217;28;20029;-65
2022/10/15 07:51:15;;;;;;;3.55;1.75;;;;;;;;;;5028668;28;20461;-65
2022/10/15 07:53:42;;;;;;;2.22;1.40;;;;;;;;;;5029204;28;20104;-65
2022/10/15 07:56:11;;;;;;;3.13;1.90;;;;;;;;;;5025556;28;20126;-65
2022/10/15 07:58:37;;;;;;;2.67;1.50;;;;;;;;;;5029009;28;20044;-65
2022/10/15 08:01:05;;;;;;;2.55;1.40;;;;;;;;;;5029660;28;20025;-65
2022/10/15 08:03:30;;;;;;;2.08;1.42;;;;;;;;;;5027497;28;20074;-65
2022/10/15 08:05:59;;;;;;;3.67;1.30;;;;;;;;;;5029545;28;20033;-65
2022/10/15 08:08:24;;;;;;;2.42;1.38;;;;;;;;;;5029276;28;20042;-65
2022/10/15 08:10:49;;;;;;;2.85;1.50;;;;;;;;;;5028162;28;20037;-65
2022/10/15 08:13:14;;;;;;;2.17;1.35;;;;;;;;;;5028758;28;20146;-65
2022/10/15 08:15:41;;;;;;;2.20;1.38;;;;;;;;;;5027613;28;20049;-65
2022/10/15 08:18:07;;;;;;;2.00;1.23;;;;;;;;;;5033082;28;20083;-65
2022/10/15 08:20:32;;;;;;;1.55;0.98;;;;;;;;;;5048770;28;20100;-65
2022/10/15 08:22:58;;;;;;;2.78;1.27;;;;;;;;;;5048544;28;20131;-65
2022/10/15 08:25:24;;;;;;;1.30;1.00;;;;;;;;;;5046966;28;20040;-65
2022/10/15 08:27:49;;;;;;;4.18;1.35;;;;;;;;;;5026002;28;20728;-65
2022/10/15 08:30:14;;;;;;;3.17;1.30;;;;;;;;;;5027671;28;20032;-65
2022/10/15 08:32:40;;;;;;;2.50;1.10;;;;;;;;;;5028057;28;20101;-66
2022/10/15 08:35:05;;;;;;;2.10;1.20;;;;;;;;;;5026836;28;20063;-66
2022/10/15 08:37:31;;;;;;;2.85;1.10;;;;;;;;;;5027727;28;20522;-65
2022/10/15 08:39:56;;;;;;;1.67;1.02;;;;;;;;;;5026807;28;20048;-66
2022/10/15 08:42:31;;;;;;;2.63;1.10;;;;;;;;;;5026436;28;20017;-65
2022/10/15 08:45:00;;;;;;;2.30;1.45;;;;;;;;;;5023636;28;20065;-65
2022/10/15 08:47:25;;;;;;;2.20;1.10;;;;;;;;;;5017156;28;20041;-65
2022/10/15 08:49:57;;;;;;;2.92;1.60;;;;;;;;;;5005592;28;20042;-65
2022/10/15 08:52:38;;;;;;;2.97;1.92;;;;;;;;;;5006906;28;20642;-65
2022/10/15 08:55:04;;;;;;;2.42;1.58;;;;;;;;;;5021722;28;20144;-63
2022/10/15 08:57:32;;;;;;;2.30;1.70;;;;;;;;;;5025644;28;20558;-63
2022/10/15 09:00:28;;;;;;;3.25;1.75;;;;;;;;;;5028780;28;20052;-62
2022/10/15 09:02:59;;;;;;;1.38;1.10;;;;;;;;;;5004656;28;20052;-63
2022/10/15 09:05:43;;;;;;;1.20;1.02;;;;;;;;;;5046002;28;20087;-63
2022/10/15 09:08:20;;;;;;;1.02;0.77;;;;;;;;;;5047716;28;20059;-63
2022/10/15 09:10:50;;;;;;;1.23;1.00;;;;;;;;;;5046930;28;20082;-63
2022/10/15 09:13:39;;;;;;;2.38;0.90;;;;;;;;;;5047480;28;20033;-63
2022/10/15 09:16:14;;;;;;;1.38;1.08;;;;;;;;;;5047027;28;20029;-63
2022/10/15 09:18:45;;;;;;;1.05;0.90;;;;;;;;;;5047542;28;20028;-63
2022/10/15 09:21:12;;;;;;;0.90;0.80;;;;;;;;;;5047574;28;20437;-63
2022/10/15 09:23:40;;;;;;;1.75;1.00;;;;;;;;;;5047788;28;20029;-63
2022/10/15 09:26:12;;;;;;;1.30;1.10;;;;;;;;;;5047389;28;20103;-63
2022/10/15 09:28:45;;;;;;;1.60;1.15;;;;;;;;;;5047844;28;20041;-63
2022/10/15 09:31:14;;;;;;;2.22;1.13;;;;;;;;;;5047663;28;20111;-63
2022/10/15 09:33:49;;;;;;;1.83;1.20;;;;;;;;;;5047199;28;20413;-64
2022/10/15 09:36:18;;;;;;;2.03;1.25;;;;;;;;;;5047439;28;20522;-63
2022/10/15 09:38:52;;;;;;;3.50;1.45;;;;;;;;;;5045541;28;20497;-63
2022/10/15 09:41:31;;;;;;;3.75;1.50;;;;;;;;;;5047068;28;20470;-63
2022/10/15 09:44:00;;;;;;;5.43;2.45;;;;;;;;;;5046645;28;20056;-63
2022/10/15 09:46:25;;;;;;;2.13;1.45;;;;;;;;;;5046940;28;20048;-63
2022/10/15 09:49:21;;;;;;;4.90;1.73;;;;;;;;;;5045434;28;20033;-63
2022/10/15 09:52:05;;;;;;;2.33;1.55;;;;;;;;;;5042590;28;20542;-63
2022/10/15 09:54:49;;;;;;;1.60;1.40;;;;;;;;;;5041452;28;20065;-63
2022/10/15 09:57:18;;;;;;;2.17;1.52;;;;;;;;;;5047395;28;20029;-63
2022/10/15 10:00:00;;;;;;;1.70;1.40;;;;;;;;;;5047344;28;20032;-63
2022/10/15 10:02:26;;;;;;;2.17;1.35;;;;;;;;;;5044524;28;20033;-63
2022/10/15 10:04:52;;;;;;;1.95;1.45;;;;;;;;;;5045211;28;20060;-63
2022/10/15 10:07:36;;;;;;;5.32;1.92;;;;;;;;;;5047090;28;20179;-64
2022/10/15 10:10:20;;;;;;;3.60;2.08;;;;;;;;;;5046378;28;20040;-64
2022/10/15 10:12:45;;;;;;;4.95;2.20;;;;;;;;;;5043330;28;20046;-63
2022/10/15 10:15:34;;;;;;;3.47;1.80;;;;;;;;;;5047038;28;20604;-64
2022/10/15 10:18:00;;;;;;;3.15;2.03;;;;;;;;;;5067452;28;20040;-63
2022/10/15 10:20:29;;;;;;;3.85;2.30;;;;;;;;;;5066765;28;20067;-64
2022/10/15 10:22:56;;;;;;;6.53;1.98;;;;;;;;;;5050761;28;20037;-64
2022/10/15 10:25:39;;;;;;;3.75;2.00;;;;;;;;;;5047073;28;20132;-63
2022/10/15 10:28:07;;;;;;;2.45;1.80;;;;;;;;;;5042311;28;20036;-63
2022/10/15 10:30:41;;;;;;;3.97;1.90;;;;;;;;;;5047265;28;20039;-63
2022/10/15 10:33:11;;;;;;;2.75;2.00;;;;;;;;;;5045020;28;20029;-64
2022/10/15 10:35:49;;;;;;;4.32;2.72;;;;;;;;;;5048155;28;20025;-64
2022/10/15 10:38:19;;;;;;;4.97;2.35;;;;;;;;;;5046906;28;20037;-64
2022/10/15 10:40:49;;;;;;;5.50;2.70;;;;;;;;;;5047157;28;20082;-63
2022/10/15 10:43:20;;;;;;;4.53;2.80;;;;;;;;;;5036975;28;20080;-62
2022/10/15 10:46:16;;;;;;;5.57;2.90;;;;;;;;;;5037286;28;20067;-62
2022/10/15 10:48:45;;;;;;;3.60;2.47;;;;;;;;;;5036064;28;20037;-61
2022/10/15 10:51:18;;;;;;;4.90;3.30;;;;;;;;;;5037104;28;20041;-61
2022/10/15 10:54:00;;;;;;;4.57;2.53;;;;;;;;;;5009463;28;20045;-61
2022/10/15 10:56:42;;;;;;;4.47;2.70;;;;;;;;;;5044022;28;20025;-62
2022/10/15 10:59:31;;;;;;;4.72;2.55;;;;;;;;;;5039494;28;20033;-61
2022/10/15 11:01:57;;;;;;;3.22;2.30;;;;;;;;;;5040897;28;20091;-62
2022/10/15 11:04:24;;;;;;;6.05;2.10;;;;;;;;;;5045405;28;20041;-61
2022/10/15 11:07:31;;;;;;;2.60;1.65;;;;;;;;;;5033601;28;20122;-61
2022/10/15 11:10:06;;;;;;;1.85;1.52;;;;;;;;;;5037265;28;20039;-61
2022/10/15 11:12:49;;;;;;;1.15;1.02;;;;;;;;;;5047603;28;20029;-61
2022/10/15 11:15:33;;;;;;;1.52;0.70;;;;;;;;;;5046648;28;20064;-61
2022/10/15 11:18:28;;;;;;;0.75;0.70;;;;;;;;;;5045075;28;20037;-61
2022/10/15 11:21:02;;;;;;;0.88;0.77;;;;;;;;;;5048669;28;20044;-61
2022/10/15 11:23:46;;;;;;;0.77;0.77;;;;;;;;;;5050242;28;20099;-61
2022/10/15 11:26:24;;;;;;;1.58;0.80;;;;;;;;;;5049074;28;21086;-61
2022/10/15 11:29:03;;;;;;;1.70;0.82;;;;;;;;;;5048456;28;20485;-61
2022/10/15 11:31:56;;;;;;;1.45;0.73;;;;;;;;;;5047308;28;20053;-61
2022/10/15 11:34:40;;;;;;;1.10;1.00;;;;;;;;;;5049561;28;20102;-61
2022/10/15 11:37:37;;;;;;;1.60;1.10;;;;;;;;;;5042747;28;20033;-61
2022/10/15 11:40:15;;;;;;;1.15;1.05;;;;;;;;;;5004498;28;20129;-61
2022/10/15 11:42:52;;;;;;;1.17;0.95;;;;;;;;;;5049256;28;20069;-61
2022/10/15 11:45:52;;;;;;;1.60;0.90;;;;;;;;;;5046381;28;20056;-61
2022/10/15 11:48:50;;;;;;;1.63;0.85;;;;;;;;;;5024077;28;20450;-61
2022/10/15 11:52:02;;;;;;;1.30;1.00;;;;;;;;;;5027912;28;20071;-61
2022/10/15 11:54:42;;;;;;;1.80;1.38;;;;;;;;;;5038543;28;20056;-61
2022/10/15 11:57:11;;;;;;;2.83;1.98;;;;;;;;;;5046637;28;20152;-61
2022/10/15 11:59:54;;;;;;;4.70;2.05;;;;;;;;;;5045792;28;20049;-61
2022/10/15 12:02:34;;;;;;;1.77;1.40;;;;;;;;;;5049659;28;20041;-61
2022/10/15 12:05:04;;;;;;;2.40;1.10;;;;;;;;;;5047840;28;20040;-61
2022/10/15 12:07:40;;;;;;;1.05;0.95;;;;;;;;;;5049259;28;20041;-61
2022/10/15 12:10:36;;;;;;;1.08;0.88;;;;;;;;;;5048783;28;20013;-61
2022/10/15 12:13:22;;;;;;;1.13;0.80;;;;;;;;;;5049188;28;20024;-61
2022/10/15 12:15:59;;;;;;;0.90;0.70;;;;;;;;;;5050311;28;20584;-61
2022/10/15 12:18:38;;;;;;;0.77;0.70;;;;;;;;;;5048465;28;20131;-61
2022/10/15 12:21:37;;;;;;;1.38;0.70;;;;;;;;;;5049724;28;20512;-61
2022/10/15 12:24:09;;;;;;;0.98;0.70;;;;;;;;;;5042731;28;20041;-61
2022/10/15 12:26:35;;;;;;;3.17;0.90;;;;;;;;;;5028386;28;20045;-61
2022/10/15 12:29:05;;;;;;;4.90;0.98;;;;;;;;;;5028249;28;20041;-61
2022/10/15 12:31:49;;;;;;;0.80;0.70;;;;;;;;;;5028400;28;20774;-62
2022/10/15 12:34:41;;;;;;;0.95;0.73;;;;;;;;;;5028836;28;20033;-61
2022/10/15 12:37:17;;;;;;;2.03;0.80;;;;;;;;;;5028429;28;20965;-61
2022/10/15 12:39:44;;;;;;;3.50;1.00;;;;;;;;;;5040450;28;20037;-61
2022/10/15 12:42:27;;;;;;;2.42;1.00;;;;;;;;;;5047217;28;20033;-62
2022/10/15 12:44:53;;;;;;;1.33;0.90;;;;;;;;;;5049401;28;20102;-61
2022/10/15 12:47:54;;;;;;;2.67;1.20;;;;;;;;;;5048923;28;20040;-62
2022/10/15 12:50:25;;;;;;;2.78;1.00;;;;;;;;;;5047694;28;20029;-61
2022/10/15 12:52:54;;;;;;;1.98;1.00;;;;;;;;;;5048202;28;20094;-61
2022/10/15 12:55:27;;;;;;;1.77;0.90;;;;;;;;;;5047328;28;20418;-62
2022/10/15 12:58:24;;;;;;;2.75;0.90;;;;;;;;;;5053819;28;20052;-61
2022/10/15 13:00:50;;;;;;;6.85;1.20;;;;;;;;;;5053809;28;20032;-62
2022/10/15 13:03:26;;;;;;;2.30;0.90;;;;;;;;;;5069033;28;20099;-62
2022/10/15 13:05:54;;;;;;;4.03;1.10;;;;;;;;;;5066785;28;20028;-62
2022/10/15 13:08:24;;;;;;;3.67;0.90;;;;;;;;;;5067598;28;20058;-62
2022/10/15 13:10:58;;;;;;;4.05;1.02;;;;;;;;;;5067679;28;20039;-62
2022/10/15 13:13:27;;;;;;;4.05;1.08;;;;;;;;;;5067576;28;20035;-62
2022/10/15 13:16:01;;;;;;;2.65;0.90;;;;;;;;;;5051480;28;20021;-62
2022/10/15 13:18:29;;;;;;;1.92;1.00;;;;;;;;;;5034232;28;20032;-62
2022/10/15 13:20:55;;;;;;;1.50;0.90;;;;;;;;;;5027657;28;20033;-62
2022/10/15 13:23:26;;;;;;;3.22;0.80;;;;;;;;;;5026534;28;20057;-61
2022/10/15 13:25:52;;;;;;;2.22;0.80;;;;;;;;;;5027356;28;20034;-62
2022/10/15 13:28:36;;;;;;;4.38;0.85;;;;;;;;;;5028342;28;20068;-62
2022/10/15 13:31:12;;;;;;;1.75;0.93;;;;;;;;;;5049395;28;20050;-62
2022/10/15 13:33:42;;;;;;;3.38;1.20;;;;;;;;;;5067773;28;20565;-62
2022/10/15 13:36:08;;;;;;;2.95;1.00;;;;;;;;;;5039436;28;20029;-62
2022/10/15 13:38:37;;;;;;;3.47;1.10;;;;;;;;;;5029289;28;20041;-62
2022/10/15 13:41:02;;;;;;;7.03;1.05;;;;;;;;;;5045779;28;20075;-62
2022/10/15 13:43:28;;;;;;;2.58;0.80;;;;;;;;;;5045613;28;20410;-62
2022/10/15 13:45:56;;;;;;;5.63;1.00;;;;;;;;;;5046286;28;20032;-62
2022/10/15 13:48:27;;;;;;;1.20;0.95;;;;;;;;;;5047562;28;20085;-62
2022/10/15 13:50:56;;;;;;;2.65;0.80;;;;;;;;;;5043772;28;20033;-62
2022/10/15 13:53:33;;;;;;;4.35;1.00;;;;;;;;;;5045638;28;20033;-62
2022/10/15 13:56:01;;;;;;;3.80;1.13;;;;;;;;;;5046902;28;20174;-62
2022/10/15 13:58:37;;;;;;;1.10;0.63;;;;;;;;;;5044284;28;20110;-62
2022/10/15 14:01:13;;;;;;;1.00;0.80;;;;;;;;;;5045535;28;20079;-61
2022/10/15 14:04:05;;;;;;;2.28;0.85;;;;;;;;;;5045024;28;20021;-62
2022/10/15 14:06:33;;;;;;;1.40;0.70;;;;;;;;;;5051364;28;20055;-61
2022/10/15 14:09:01;;;;;;;2.67;1.00;;;;;;;;;;5063520;28;20572;-62
2022/10/15 14:11:28;;;;;;;2.65;0.93;;;;;;;;;;5045391;28;20033;-62
2022/10/15 14:13:56;;;;;;;2.10;0.70;;;;;;;;;;5044248;28;20037;-62
2022/10/15 14:16:38;;;;;;;1.80;0.80;;;;;;;;;;5047167;28;20044;-62
2022/10/15 14:19:03;;;;;;;1.63;0.75;;;;;;;;;;5046015;28;20487;-62
2022/10/15 14:21:31;;;;;;;1.95;0.90;;;;;;;;;;5044243;28;20035;-62
2022/10/15 14:24:11;;;;;;;2.10;0.93;;;;;;;;;;5046539;28;20033;-62
2022/10/15 14:26:38;;;;;;;3.47;0.90;;;;;;;;;;5046290;28;20048;-61
2022/10/15 14:29:04;;;;;;;6.78;1.35;;;;;;;;;;5046277;28;20064;-62
2022/10/15 14:31:40;;;;;;;2.10;0.75;;;;;;;;;;5044709;28;20075;-62
2022/10/15 14:34:34;;;;;;;4.07;0.73;;;;;;;;;;5044056;28;20490;-62
2022/10/15 14:37:23;;;;;;;1.73;0.60;;;;;;;;;;5031950;28;20214;-62
2022/10/15 14:39:48;;;;;;;1.60;0.60;;;;;;;;;;5029099;28;20044;-62
2022/10/15 14:42:30;;;;;;;3.30;0.73;;;;;;;;;;5046953;28;20033;-62
2022/10/15 14:44:55;;;;;;;1.90;0.70;;;;;;;;;;5047601;28;20513;-62
2022/10/15 14:47:24;;;;;;;3.20;0.60;;;;;;;;;;5047107;28;20064;-62
2022/10/15 14:49:53;;;;;;;0.50;0.40;;;;;;;;;;5046884;28;20037;-62
2022/10/15 14:52:20;;;;;;;1.95;0.55;;;;;;;;;;5050212;28;20063;-62
2022/10/15 14:55:00;;;;;;;0.73;0.70;;;;;;;;;;5045040;28;20018;-62
2022/10/15 14:57:29;;;;;;;1.27;0.70;;;;;;;;;;5038087;28;20033;-62
2022/10/15 14:59:56;;;;;;;3.88;0.88;;;;;;;;;;5026511;28;20150;-62